createdAt,value
2023-06-04T00:00:51.518Z,17.98
2023-06-04T00:01:54.155Z,17.98
2023-06-04T00:02:56.866Z,17.94
2023-06-04T00:03:59.634Z,17.95
2023-06-04T00:05:02.344Z,17.90
2023-06-04T00:06:04.986Z,17.86
2023-06-04T00:07:07.732Z,17.80
2023-06-04T00:08:10.329Z,17.81
2023-06-04T00:09:13.062Z,17.79
2023-06-04T00:10:15.878Z,17.74
2023-06-04T00:11:18.574Z,17.72
2023-06-04T00:12:21.275Z,17.70
2023-06-04T00:13:23.889Z,17.68
2023-06-04T00:14:26.513Z,17.64
2023-06-04T00:15:29.150Z,17.64
2023-06-04T00:16:31.781Z,17.58
2023-06-04T00:17:34.578Z,17.53
2023-06-04T00:18:37.262Z,17.46
2023-06-04T00:19:42.721Z,17.38
2023-06-04T00:20:45.322Z,17.26
2023-06-04T00:21:48.125Z,17.22
2023-06-04T00:22:50.940Z,17.14
2023-06-04T00:23:53.585Z,17.05
2023-06-04T00:24:56.306Z,17.03
2023-06-04T00:25:58.963Z,17.00
2023-06-04T00:27:01.592Z,16.95
2023-06-04T00:28:04.462Z,16.82
2023-06-04T00:29:07.087Z,16.74
2023-06-04T00:30:10.241Z,16.61
2023-06-04T00:31:14.310Z,16.53
2023-06-04T00:32:17.065Z,16.50
2023-06-04T00:33:19.924Z,16.48
2023-06-04T00:34:23.115Z,16.36
2023-06-04T00:35:25.833Z,16.34
2023-06-04T00:36:28.469Z,16.29
2023-06-04T00:37:31.518Z,16.18
2023-06-04T00:38:34.382Z,16.02
2023-06-04T00:39:37.003Z,16.02
2023-06-04T00:40:39.624Z,15.88
2023-06-04T00:41:42.224Z,15.87
2023-06-04T00:42:46.704Z,15.81
2023-06-04T00:43:57.850Z,15.85
2023-06-04T00:45:00.677Z,15.77
2023-06-04T00:46:06.943Z,15.69
2023-06-04T00:47:09.582Z,15.70
2023-06-04T00:48:12.457Z,15.58
2023-06-04T00:49:15.454Z,15.53
2023-06-04T00:50:18.149Z,15.43
2023-06-04T00:51:22.671Z,15.40
2023-06-04T00:52:26.128Z,15.29
2023-06-04T00:53:28.910Z,15.22
2023-06-04T00:54:34.242Z,15.17
2023-06-04T00:55:36.996Z,15.09
2023-06-04T00:56:40.233Z,15.01
2023-06-04T00:57:42.842Z,14.90
2023-06-04T00:58:46.624Z,14.88
2023-06-04T00:59:49.763Z,14.85
2023-06-04T01:00:58.206Z,14.76
2023-06-04T01:02:06.250Z,14.72
2023-06-04T01:03:20.577Z,14.69
2023-06-04T01:04:46.344Z,14.64
2023-06-04T01:06:22.789Z,14.53
2023-06-04T01:07:29.132Z,14.50
2023-06-04T01:08:32.674Z,14.43
2023-06-04T01:09:35.670Z,14.40
2023-06-04T01:10:38.272Z,14.35
2023-06-04T01:11:42.014Z,14.38
2023-06-04T01:12:45.388Z,14.25
2023-06-04T01:13:48.564Z,14.26
2023-06-04T01:14:51.533Z,14.22
2023-06-04T01:15:54.141Z,14.18
2023-06-04T01:17:04.731Z,14.15
2023-06-04T01:18:08.615Z,14.12
2023-06-04T01:19:31.444Z,14.05
2023-06-04T01:20:36.732Z,14.07
2023-06-04T01:21:40.336Z,13.95
2023-06-04T01:22:45.465Z,13.96
2023-06-04T01:24:02.280Z,13.87
2023-06-04T01:25:07.214Z,13.83
2023-06-04T01:26:12.343Z,13.82
2023-06-04T01:27:17.564Z,13.79
2023-06-04T01:28:22.645Z,13.80
2023-06-04T01:29:25.747Z,13.76
2023-06-04T01:30:34.167Z,13.77
2023-06-04T01:31:37.363Z,13.76
2023-06-04T01:32:40.180Z,13.74
2023-06-04T01:33:42.905Z,13.73
2023-06-04T01:34:48.884Z,13.68
2023-06-04T01:35:51.850Z,13.62
2023-06-04T01:36:54.454Z,13.61
2023-06-04T01:37:57.419Z,13.58
2023-06-04T01:39:02.253Z,13.55
2023-06-04T01:40:06.672Z,13.50
2023-06-04T01:41:09.349Z,13.47
2023-06-04T01:42:12.271Z,13.44
2023-06-04T01:43:15.249Z,13.42
2023-06-04T01:44:17.905Z,13.42
2023-06-04T01:45:20.682Z,13.41
2023-06-04T01:46:23.832Z,13.40
2023-06-04T01:47:26.589Z,13.34
2023-06-04T01:48:29.287Z,13.24
2023-06-04T01:49:31.903Z,13.22
2023-06-04T01:50:34.756Z,13.19
2023-06-04T01:51:38.415Z,13.11
2023-06-04T01:52:42.237Z,13.07
2023-06-04T01:53:44.853Z,13.02
2023-06-04T01:54:47.503Z,12.96
2023-06-04T01:55:50.933Z,12.94
2023-06-04T01:56:53.514Z,12.96
2023-06-04T01:57:56.139Z,12.94
2023-06-04T01:58:58.804Z,12.88
2023-06-04T02:00:02.440Z,12.86
2023-06-04T02:01:05.344Z,12.82
2023-06-04T02:02:08.265Z,12.80
2023-06-04T02:03:12.237Z,12.79
2023-06-04T02:04:14.906Z,12.74
2023-06-04T02:05:18.070Z,12.68
2023-06-04T02:06:20.726Z,12.63
2023-06-04T02:07:23.330Z,12.61
2023-06-04T02:08:26.896Z,12.65
2023-06-04T02:09:29.243Z,12.64
2023-06-04T02:10:31.777Z,12.66
2023-06-04T02:11:34.454Z,12.66
2023-06-04T02:12:39.308Z,12.66
2023-06-04T02:13:42.034Z,12.54
2023-06-04T02:14:46.685Z,12.46
2023-06-04T02:15:49.310Z,12.46
2023-06-04T02:16:52.149Z,12.46
2023-06-04T02:18:00.739Z,12.44
2023-06-04T02:19:04.711Z,12.42
2023-06-04T02:20:11.327Z,12.43
2023-06-04T02:21:13.990Z,12.40
2023-06-04T02:22:17.236Z,12.42
2023-06-04T02:23:21.627Z,12.41
2023-06-04T02:24:24.379Z,12.38
2023-06-04T02:25:27.030Z,12.34
2023-06-04T02:26:29.724Z,12.31
2023-06-04T02:27:32.795Z,12.18
2023-06-04T02:28:35.445Z,12.14
2023-06-04T02:29:38.958Z,12.13
2023-06-04T02:30:42.188Z,12.04
2023-06-04T02:31:44.835Z,12.05
2023-06-04T02:32:51.610Z,12.03
2023-06-04T02:33:57.100Z,11.93
2023-06-04T02:34:59.734Z,11.90
2023-06-04T02:36:03.602Z,11.87
2023-06-04T02:37:07.216Z,11.85
2023-06-04T02:38:09.662Z,11.76
2023-06-04T02:39:12.251Z,11.64
2023-06-04T02:40:14.989Z,11.66
2023-06-04T02:41:17.592Z,11.71
2023-06-04T02:42:20.454Z,11.74
2023-06-04T02:43:23.114Z,11.68
2023-06-04T02:44:27.602Z,11.66
2023-06-04T02:45:30.459Z,11.54
2023-06-04T02:46:33.089Z,11.50
2023-06-04T02:47:36.051Z,11.49
2023-06-04T02:48:38.685Z,11.52
2023-06-04T02:49:41.440Z,11.46
2023-06-04T02:50:44.167Z,11.45
2023-06-04T02:51:47.225Z,11.48
2023-06-04T02:52:49.870Z,11.40
2023-06-04T02:53:53.697Z,11.40
2023-06-04T02:54:56.702Z,11.36
2023-06-04T02:55:59.310Z,11.34
2023-06-04T02:57:02.046Z,11.37
2023-06-04T02:58:04.683Z,11.34
2023-06-04T02:59:07.438Z,11.27
2023-06-04T03:00:14.706Z,11.28
2023-06-04T03:01:22.538Z,11.28
2023-06-04T03:02:25.217Z,11.29
2023-06-04T03:03:28.543Z,11.34
2023-06-04T03:04:35.805Z,11.33
2023-06-04T03:05:41.134Z,11.33
2023-06-04T03:06:47.760Z,11.29
2023-06-04T03:07:50.426Z,11.21
2023-06-04T03:08:53.311Z,11.17
2023-06-04T03:09:55.940Z,11.12
2023-06-04T03:10:58.562Z,11.11
2023-06-04T03:12:05.178Z,11.11
2023-06-04T03:13:07.768Z,11.08
2023-06-04T03:14:10.363Z,10.99
2023-06-04T03:15:13.579Z,10.88
2023-06-04T03:16:16.825Z,10.88
2023-06-04T03:17:19.517Z,10.86
2023-06-04T03:18:22.319Z,10.76
2023-06-04T03:19:24.913Z,10.77
2023-06-04T03:20:27.588Z,10.82
2023-06-04T03:21:30.773Z,10.87
2023-06-04T03:22:35.358Z,10.90
2023-06-04T03:23:37.968Z,10.92
2023-06-04T03:24:41.989Z,10.94
2023-06-04T03:25:44.620Z,10.94
2023-06-04T03:26:47.223Z,10.95
2023-06-04T03:27:49.872Z,10.96
2023-06-04T03:28:52.490Z,10.95
2023-06-04T03:29:55.093Z,10.93
2023-06-04T03:30:57.892Z,10.91
2023-06-04T03:32:01.344Z,10.91
2023-06-04T03:33:04.352Z,10.90
2023-06-04T03:34:07.143Z,10.86
2023-06-04T03:35:10.180Z,10.82
2023-06-04T03:36:12.870Z,10.82
2023-06-04T03:37:15.551Z,10.80
2023-06-04T03:38:18.245Z,10.77
2023-06-04T03:39:21.032Z,10.73
2023-06-04T03:40:23.643Z,10.75
2023-06-04T03:41:27.728Z,10.79
2023-06-04T03:42:30.318Z,10.77
2023-06-04T03:43:32.923Z,10.78
2023-06-04T03:44:35.585Z,10.74
2023-06-04T03:45:38.300Z,10.70
2023-06-04T03:46:40.959Z,10.70
2023-06-04T03:47:43.733Z,10.68
2023-06-04T03:48:46.373Z,10.68
2023-06-04T03:49:48.954Z,10.66
2023-06-04T03:50:52.286Z,10.66
2023-06-04T03:51:55.288Z,10.67
2023-06-04T03:52:58.087Z,10.67
2023-06-04T03:54:00.983Z,10.64
2023-06-04T03:55:04.567Z,10.68
2023-06-04T03:56:07.216Z,10.74
2023-06-04T03:57:09.842Z,10.80
2023-06-04T03:58:13.446Z,10.90
2023-06-04T03:59:15.825Z,10.93
2023-06-04T04:00:18.679Z,10.98
2023-06-04T04:01:21.381Z,11.09
2023-06-04T04:02:24.123Z,11.16
2023-06-04T04:03:26.960Z,11.21
2023-06-04T04:04:29.654Z,11.22
2023-06-04T04:05:33.031Z,11.24
2023-06-04T04:06:37.072Z,11.33
2023-06-04T04:07:39.759Z,11.33
2023-06-04T04:08:43.884Z,11.30
2023-06-04T04:09:46.691Z,11.33
2023-06-04T04:10:49.399Z,11.35
2023-06-04T04:11:52.184Z,11.38
2023-06-04T04:12:56.535Z,11.38
2023-06-04T04:13:59.839Z,11.40
2023-06-04T04:15:02.470Z,11.39
2023-06-04T04:16:05.208Z,11.38
2023-06-04T04:17:07.866Z,11.39
2023-06-04T04:18:12.255Z,11.40
2023-06-04T04:19:16.004Z,11.41
2023-06-04T04:20:19.720Z,11.41
2023-06-04T04:21:22.628Z,11.40
2023-06-04T04:22:25.408Z,11.39
2023-06-04T04:23:28.971Z,11.38
2023-06-04T04:24:31.366Z,11.38
2023-06-04T04:25:34.078Z,11.36
2023-06-04T04:26:36.704Z,11.37
2023-06-04T04:27:42.177Z,11.39
2023-06-04T04:28:45.325Z,11.35
2023-06-04T04:29:49.046Z,11.35
2023-06-04T04:30:52.540Z,11.35
2023-06-04T04:31:59.145Z,11.32
2023-06-04T04:33:01.945Z,11.35
2023-06-04T04:34:10.074Z,11.33
2023-06-04T04:35:12.825Z,11.35
2023-06-04T04:36:15.498Z,11.34
2023-06-04T04:37:18.106Z,11.34
2023-06-04T04:38:26.785Z,11.31
2023-06-04T04:39:29.411Z,11.32
2023-06-04T04:40:32.857Z,11.35
2023-06-04T04:41:35.484Z,11.36
2023-06-04T04:42:38.331Z,11.33
2023-06-04T04:43:41.258Z,11.36
2023-06-04T04:44:44.114Z,11.35
2023-06-04T04:45:46.705Z,11.33
2023-06-04T04:46:52.600Z,11.33
2023-06-04T04:47:55.308Z,11.33
2023-06-04T04:48:57.926Z,11.36
2023-06-04T04:50:00.629Z,11.32
2023-06-04T04:51:03.501Z,11.32
2023-06-04T04:52:06.345Z,11.29
2023-06-04T04:53:08.939Z,11.32
2023-06-04T04:54:11.549Z,11.32
2023-06-04T04:55:14.579Z,11.32
2023-06-04T04:56:17.212Z,11.33
2023-06-04T04:57:19.881Z,11.30
2023-06-04T04:58:22.656Z,11.30
2023-06-04T04:59:25.317Z,11.28
2023-06-04T05:00:29.108Z,11.26
2023-06-04T05:01:31.756Z,11.27
2023-06-04T05:02:34.678Z,11.28
2023-06-04T05:03:37.412Z,11.25
2023-06-04T05:04:40.127Z,11.25
2023-06-04T05:05:42.927Z,11.23
2023-06-04T05:06:45.511Z,11.19
2023-06-04T05:07:48.445Z,11.17
2023-06-04T05:08:51.118Z,11.17
2023-06-04T05:09:53.735Z,11.18
2023-06-04T05:10:56.453Z,11.16
2023-06-04T05:11:59.388Z,11.14
2023-06-04T05:13:06.649Z,11.15
2023-06-04T05:14:09.327Z,11.16
2023-06-04T05:15:14.065Z,11.14
2023-06-04T05:16:16.751Z,11.16
2023-06-04T05:17:23.230Z,11.14
2023-06-04T05:18:30.290Z,11.13
2023-06-04T05:19:34.547Z,11.11
2023-06-04T05:20:39.133Z,11.14
2023-06-04T05:21:41.733Z,11.13
2023-06-04T05:22:47.215Z,11.09
2023-06-04T05:23:50.058Z,11.07
2023-06-04T05:24:53.195Z,11.03
2023-06-04T05:25:56.072Z,11.00
2023-06-04T05:26:58.932Z,10.98
2023-06-04T05:28:01.574Z,10.97
2023-06-04T05:29:05.838Z,10.92
2023-06-04T05:30:11.057Z,10.92
2023-06-04T05:31:14.793Z,10.90
2023-06-04T05:32:17.767Z,10.92
2023-06-04T05:33:20.432Z,10.91
2023-06-04T05:34:23.146Z,10.90
2023-06-04T05:35:25.780Z,10.89
2023-06-04T05:36:28.448Z,10.88
2023-06-04T05:37:31.153Z,10.89
2023-06-04T05:38:33.754Z,10.88
2023-06-04T05:39:37.647Z,10.83
2023-06-04T05:40:40.261Z,10.80
2023-06-04T05:41:42.833Z,10.79
2023-06-04T05:42:45.436Z,10.77
2023-06-04T05:43:48.025Z,10.75
2023-06-04T05:44:50.668Z,10.75
2023-06-04T05:45:53.358Z,10.73
2023-06-04T05:46:56.061Z,10.71
2023-06-04T05:47:59.538Z,10.69
2023-06-04T05:49:04.070Z,10.67
2023-06-04T05:50:07.581Z,10.66
2023-06-04T05:51:10.298Z,10.63
2023-06-04T05:52:12.986Z,10.60
2023-06-04T05:53:15.604Z,10.61
2023-06-04T05:54:18.195Z,10.62
2023-06-04T05:55:21.448Z,10.60
2023-06-04T05:56:24.078Z,10.58
2023-06-04T05:57:26.720Z,10.57
2023-06-04T05:58:29.333Z,10.56
2023-06-04T05:59:31.924Z,10.54
2023-06-04T06:00:34.568Z,10.50
2023-06-04T06:01:37.973Z,10.50
2023-06-04T06:02:40.867Z,10.50
2023-06-04T06:03:43.918Z,10.46
2023-06-04T06:04:46.788Z,10.42
2023-06-04T06:05:49.473Z,10.42
2023-06-04T06:06:52.143Z,10.41
2023-06-04T06:07:54.908Z,10.37
2023-06-04T06:08:57.533Z,10.36
2023-06-04T06:10:00.165Z,10.37
2023-06-04T06:11:07.804Z,10.29
2023-06-04T06:12:12.083Z,10.29
2023-06-04T06:13:14.824Z,10.29
2023-06-04T06:14:17.440Z,10.25
2023-06-04T06:15:20.131Z,10.23
2023-06-04T06:16:22.864Z,10.21
2023-06-04T06:17:25.672Z,10.22
2023-06-04T06:18:28.295Z,10.15
2023-06-04T06:19:31.298Z,10.13
2023-06-04T06:20:33.968Z,10.13
2023-06-04T06:21:36.598Z,10.13
2023-06-04T06:22:39.249Z,10.07
2023-06-04T06:23:41.956Z,10.00
2023-06-04T06:24:44.687Z,10.02
2023-06-04T06:25:47.337Z,10.02
2023-06-04T06:26:50.037Z,9.97
2023-06-04T06:27:52.990Z,9.95
2023-06-04T06:28:55.664Z,9.96
2023-06-04T06:29:59.304Z,9.93
2023-06-04T06:31:02.018Z,9.86
2023-06-04T06:32:05.251Z,9.76
2023-06-04T06:33:08.190Z,9.60
2023-06-04T06:34:11.058Z,9.52
2023-06-04T06:35:13.646Z,9.44
2023-06-04T06:36:20.353Z,9.41
2023-06-04T06:37:23.025Z,9.35
2023-06-04T06:38:25.660Z,9.32
2023-06-04T06:39:28.271Z,9.29
2023-06-04T06:40:32.113Z,9.24
2023-06-04T06:41:34.840Z,9.18
2023-06-04T06:42:37.472Z,9.16
2023-06-04T06:43:40.065Z,9.15
2023-06-04T06:44:42.656Z,9.12
2023-06-04T06:45:45.386Z,9.09
2023-06-04T06:46:50.295Z,9.07
2023-06-04T06:47:53.020Z,9.02
2023-06-04T06:48:55.762Z,9.00
2023-06-04T06:49:58.414Z,8.96
2023-06-04T06:51:01.108Z,8.94
2023-06-04T06:52:03.984Z,8.94
2023-06-04T06:53:06.833Z,8.91
2023-06-04T06:54:12.332Z,8.87
2023-06-04T06:55:15.042Z,8.84
2023-06-04T06:56:17.683Z,8.81
2023-06-04T06:57:20.264Z,8.76
2023-06-04T06:58:24.944Z,8.75
2023-06-04T06:59:27.543Z,8.71
2023-06-04T07:00:30.280Z,8.68
2023-06-04T07:01:35.097Z,8.66
2023-06-04T07:02:37.799Z,8.66
2023-06-04T07:03:41.361Z,8.62
2023-06-04T07:04:43.956Z,8.59
2023-06-04T07:05:46.566Z,8.58
2023-06-04T07:06:49.227Z,8.58
2023-06-04T07:07:51.828Z,8.53
2023-06-04T07:08:55.610Z,8.51
2023-06-04T07:09:58.426Z,8.49
2023-06-04T07:11:05.201Z,8.43
2023-06-04T07:12:08.196Z,8.40
2023-06-04T07:13:10.837Z,8.36
2023-06-04T07:14:13.442Z,8.27
2023-06-04T07:15:16.219Z,8.23
2023-06-04T07:16:19.541Z,8.19
2023-06-04T07:17:22.218Z,8.20
2023-06-04T07:18:24.800Z,8.20
2023-06-04T07:19:27.494Z,8.20
2023-06-04T07:20:30.183Z,8.18
2023-06-04T07:21:32.780Z,8.18
2023-06-04T07:22:36.779Z,8.16
2023-06-04T07:23:39.414Z,8.15
2023-06-04T07:24:42.071Z,8.10
2023-06-04T07:25:44.662Z,8.07
2023-06-04T07:26:47.328Z,8.03
2023-06-04T07:27:52.244Z,8.00
2023-06-04T07:28:54.888Z,8.00
2023-06-04T07:29:57.598Z,8.00
2023-06-04T07:31:00.259Z,8.01
2023-06-04T07:32:02.872Z,8.00
2023-06-04T07:33:05.719Z,7.95
2023-06-04T07:34:08.342Z,7.94
2023-06-04T07:35:11.166Z,7.95
2023-06-04T07:36:17.668Z,7.96
2023-06-04T07:37:20.295Z,7.92
2023-06-04T07:38:22.894Z,7.86
2023-06-04T07:39:26.676Z,7.81
2023-06-04T07:40:29.595Z,7.78
2023-06-04T07:41:32.383Z,7.66
2023-06-04T07:42:35.087Z,7.61
2023-06-04T07:43:38.636Z,7.59
2023-06-04T07:44:41.243Z,7.56
2023-06-04T07:45:43.918Z,7.52
2023-06-04T07:46:46.543Z,7.51
2023-06-04T07:47:49.326Z,7.44
2023-06-04T07:48:52.007Z,7.43
2023-06-04T07:50:02.598Z,7.29
2023-06-04T07:51:06.745Z,7.24
2023-06-04T07:52:09.763Z,7.24
2023-06-04T07:53:12.394Z,7.23
2023-06-04T07:54:15.751Z,7.18
2023-06-04T07:55:18.597Z,7.13
2023-06-04T07:56:21.305Z,7.10
2023-06-04T07:57:23.922Z,7.13
2023-06-04T07:58:26.967Z,7.08
2023-06-04T07:59:31.025Z,7.07
2023-06-04T08:00:33.757Z,7.05
2023-06-04T08:01:36.398Z,7.03
2023-06-04T08:02:39.142Z,7.01
2023-06-04T08:03:43.392Z,6.97
2023-06-04T08:04:49.129Z,6.98
2023-06-04T08:05:51.843Z,6.96
2023-06-04T08:06:54.648Z,6.97
2023-06-04T08:07:57.271Z,6.93
2023-06-04T08:08:59.867Z,6.92
2023-06-04T08:10:02.629Z,6.92
2023-06-04T08:11:05.590Z,6.92
2023-06-04T08:12:10.611Z,6.87
2023-06-04T08:13:14.025Z,6.86
2023-06-04T08:14:16.907Z,6.82
2023-06-04T08:15:19.563Z,6.82
2023-06-04T08:16:22.235Z,6.82
2023-06-04T08:17:25.139Z,6.79
2023-06-04T08:18:27.880Z,6.82
2023-06-04T08:19:30.508Z,6.82
2023-06-04T08:20:33.166Z,6.82
2023-06-04T08:21:36.404Z,6.83
2023-06-04T08:22:39.294Z,6.83
2023-06-04T08:23:41.935Z,6.82
2023-06-04T08:24:45.004Z,6.80
2023-06-04T08:25:47.784Z,6.78
2023-06-04T08:26:51.808Z,6.70
2023-06-04T08:27:54.667Z,6.64
2023-06-04T08:28:57.581Z,6.59
2023-06-04T08:30:00.356Z,6.57
2023-06-04T08:31:03.057Z,6.53
2023-06-04T08:32:06.020Z,6.50
2023-06-04T08:33:09.874Z,6.49
2023-06-04T08:34:14.556Z,6.49
2023-06-04T08:35:17.227Z,6.48
2023-06-04T08:36:19.866Z,6.45
2023-06-04T08:37:22.577Z,6.43
2023-06-04T08:38:25.389Z,6.42
2023-06-04T08:39:28.099Z,6.39
2023-06-04T08:40:30.719Z,6.35
2023-06-04T08:41:40.063Z,6.37
2023-06-04T08:42:46.490Z,6.38
2023-06-04T08:43:50.891Z,6.44
2023-06-04T08:44:54.490Z,6.49
2023-06-04T08:46:08.385Z,6.59
2023-06-04T08:47:14.569Z,6.74
2023-06-04T08:48:20.079Z,6.92
2023-06-04T08:49:24.354Z,7.00
2023-06-04T08:50:27.626Z,6.99
2023-06-04T08:51:34.291Z,6.87
2023-06-04T08:52:37.351Z,6.67
2023-06-04T08:53:40.158Z,6.57
2023-06-04T08:54:43.038Z,6.51
2023-06-04T08:55:45.672Z,6.42
2023-06-04T08:56:50.489Z,6.34
2023-06-04T08:57:54.224Z,6.27
2023-06-04T08:59:04.427Z,6.24
2023-06-04T09:00:09.386Z,6.24
2023-06-04T09:01:13.329Z,6.25
2023-06-04T09:02:19.645Z,6.26
2023-06-04T09:03:26.019Z,6.25
2023-06-04T09:04:29.328Z,6.16
2023-06-04T09:05:32.485Z,6.08
2023-06-04T09:06:35.723Z,5.98
2023-06-04T09:07:40.769Z,5.91
2023-06-04T09:08:51.159Z,5.90
2023-06-04T09:10:11.918Z,5.91
2023-06-04T09:11:17.645Z,5.93
2023-06-04T09:12:26.411Z,5.87
2023-06-04T09:13:33.597Z,5.85
2023-06-04T09:14:36.264Z,5.82
2023-06-04T09:15:38.869Z,5.81
2023-06-04T09:16:48.751Z,5.83
2023-06-04T09:17:51.401Z,5.84
2023-06-04T09:18:55.042Z,5.89
2023-06-04T09:19:57.723Z,5.88
2023-06-04T09:21:07.889Z,5.88
2023-06-04T09:22:10.670Z,5.86
2023-06-04T09:23:19.442Z,5.85
2023-06-04T09:24:24.149Z,5.84
2023-06-04T09:25:28.550Z,5.82
2023-06-04T09:26:31.569Z,5.78
2023-06-04T09:27:41.544Z,5.76
2023-06-04T09:28:47.579Z,5.73
2023-06-04T09:30:00.063Z,5.68
2023-06-04T09:31:04.106Z,5.63
2023-06-04T09:32:07.009Z,5.61
2023-06-04T09:33:11.051Z,5.57
2023-06-04T09:34:13.818Z,5.59
2023-06-04T09:35:17.801Z,5.66
2023-06-04T09:36:20.429Z,5.71
2023-06-04T09:37:24.452Z,5.75
2023-06-04T09:38:37.119Z,5.79
2023-06-04T09:39:39.724Z,5.84
2023-06-04T09:40:42.850Z,5.83
2023-06-04T09:41:46.047Z,5.84
2023-06-04T09:42:56.239Z,5.80
2023-06-04T09:44:07.225Z,5.69
2023-06-04T09:45:10.618Z,5.62
2023-06-04T09:46:18.766Z,5.59
2023-06-04T09:47:21.453Z,5.53
2023-06-04T09:48:24.410Z,5.51
2023-06-04T09:49:27.489Z,5.52
2023-06-04T09:50:35.647Z,5.53
2023-06-04T09:51:50.085Z,5.59
2023-06-04T09:52:54.202Z,5.59
2023-06-04T09:53:58.350Z,5.62
2023-06-04T09:55:00.996Z,5.66
2023-06-04T09:56:05.454Z,5.66
2023-06-04T09:57:19.876Z,5.65
2023-06-04T09:58:24.850Z,5.63
2023-06-04T09:59:27.769Z,5.69
2023-06-04T10:00:30.691Z,5.74
2023-06-04T10:01:35.392Z,5.71
2023-06-04T10:02:38.311Z,5.70
2023-06-04T10:03:43.340Z,5.73
2023-06-04T10:04:56.003Z,5.76
2023-06-04T10:05:59.959Z,5.77
2023-06-04T10:07:04.730Z,5.75
2023-06-04T10:08:09.326Z,5.71
2023-06-04T10:09:15.595Z,5.68
2023-06-04T10:10:24.978Z,5.64
2023-06-04T10:11:37.841Z,5.66
2023-06-04T10:12:41.638Z,5.67
2023-06-04T10:13:54.817Z,5.74
2023-06-04T10:15:04.711Z,5.80
2023-06-04T10:16:15.388Z,5.84
2023-06-04T10:17:26.624Z,5.83
2023-06-04T10:18:30.488Z,5.87
2023-06-04T10:19:35.348Z,5.91
2023-06-04T10:20:38.278Z,5.93
2023-06-04T10:21:41.133Z,5.95
2023-06-04T10:22:44.603Z,5.96
2023-06-04T10:23:48.350Z,5.99
2023-06-04T10:24:51.269Z,6.03
2023-06-04T10:25:55.429Z,6.04
2023-06-04T10:27:00.869Z,6.06
2023-06-04T10:28:04.434Z,6.05
2023-06-04T10:29:07.984Z,6.08
2023-06-04T10:30:11.617Z,6.11
2023-06-04T10:31:14.705Z,6.11
2023-06-04T10:32:18.558Z,6.11
2023-06-04T10:33:25.669Z,6.11
2023-06-04T10:34:29.050Z,6.13
2023-06-04T10:35:35.549Z,6.16
2023-06-04T10:36:45.718Z,6.19
2023-06-04T10:37:49.650Z,6.21
2023-06-04T10:38:56.070Z,6.27
2023-06-04T10:40:00.232Z,6.39
2023-06-04T10:41:13.633Z,6.47
2023-06-04T10:42:18.053Z,6.58
2023-06-04T10:43:20.886Z,6.65
2023-06-04T10:44:23.593Z,6.69
2023-06-04T10:45:33.679Z,6.72
2023-06-04T10:46:43.334Z,6.76
2023-06-04T10:47:48.829Z,6.79
2023-06-04T10:48:52.816Z,6.82
2023-06-04T10:49:56.706Z,6.83
2023-06-04T10:50:59.534Z,6.85
2023-06-04T10:52:12.369Z,6.86
2023-06-04T10:53:15.085Z,6.87
2023-06-04T10:54:28.344Z,6.94
2023-06-04T10:55:32.252Z,6.98
2023-06-04T10:56:37.081Z,7.00
2023-06-04T10:57:39.717Z,7.02
2023-06-04T10:58:42.375Z,7.03
2023-06-04T10:59:57.722Z,7.08
2023-06-04T11:01:00.361Z,7.13
2023-06-04T11:02:10.313Z,7.15
2023-06-04T11:03:13.190Z,7.18
2023-06-04T11:04:26.482Z,7.23
2023-06-04T11:05:40.263Z,7.30
2023-06-04T11:06:42.968Z,7.36
2023-06-04T11:07:47.853Z,7.37
2023-06-04T11:08:51.145Z,7.43
2023-06-04T11:09:54.599Z,7.49
2023-06-04T11:10:57.322Z,7.53
2023-06-04T11:12:01.327Z,7.60
2023-06-04T11:13:05.340Z,7.67
2023-06-04T11:14:19.478Z,7.71
2023-06-04T11:15:22.193Z,7.74
2023-06-04T11:16:24.857Z,7.79
2023-06-04T11:17:27.747Z,7.81
2023-06-04T11:18:30.525Z,7.90
2023-06-04T11:19:39.725Z,7.93
2023-06-04T11:20:44.042Z,7.98
2023-06-04T11:21:46.781Z,8.05
2023-06-04T11:22:57.653Z,8.14
2023-06-04T11:24:01.196Z,8.19
2023-06-04T11:25:04.552Z,8.23
2023-06-04T11:26:08.119Z,8.27
2023-06-04T11:27:20.650Z,8.28
2023-06-04T11:28:31.165Z,8.29
2023-06-04T11:29:34.583Z,8.33
2023-06-04T11:30:37.233Z,8.35
2023-06-04T11:31:46.998Z,8.38
2023-06-04T11:32:50.261Z,8.42
2023-06-04T11:33:53.007Z,8.47
2023-06-04T11:35:08.174Z,8.52
2023-06-04T11:36:11.022Z,8.55
2023-06-04T11:37:13.683Z,8.56
2023-06-04T11:38:16.437Z,8.60
2023-06-04T11:39:19.031Z,8.64
2023-06-04T11:40:21.899Z,8.68
2023-06-04T11:41:25.312Z,8.70
2023-06-04T11:42:29.408Z,8.74
2023-06-04T11:43:32.041Z,8.77
2023-06-04T11:44:35.425Z,8.80
2023-06-04T11:45:38.705Z,8.85
2023-06-04T11:46:50.143Z,8.90
2023-06-04T11:47:57.429Z,8.94
2023-06-04T11:49:00.530Z,8.98
2023-06-04T11:50:03.200Z,9.02
2023-06-04T11:51:09.962Z,9.07
2023-06-04T11:52:13.952Z,9.13
2023-06-04T11:53:16.745Z,9.18
2023-06-04T11:54:21.191Z,9.20
2023-06-04T11:55:24.320Z,9.22
2023-06-04T11:56:30.207Z,9.24
2023-06-04T11:57:33.050Z,9.29
2023-06-04T11:58:36.023Z,9.32
2023-06-04T11:59:38.799Z,9.34
2023-06-04T12:00:41.935Z,9.38
2023-06-04T12:01:45.679Z,9.44
2023-06-04T12:02:56.486Z,9.54
2023-06-04T12:03:59.218Z,9.57
2023-06-04T12:05:16.133Z,9.58
2023-06-04T12:06:21.707Z,9.59
2023-06-04T12:07:25.840Z,9.63
2023-06-04T12:08:28.441Z,9.66
2023-06-04T12:09:34.606Z,9.68
2023-06-04T12:10:45.038Z,9.72
2023-06-04T12:11:47.672Z,9.78
2023-06-04T12:12:57.473Z,9.80
2023-06-04T12:14:07.425Z,9.82
2023-06-04T12:15:11.473Z,9.86
2023-06-04T12:16:16.950Z,9.91
2023-06-04T12:17:19.754Z,9.93
2023-06-04T12:18:27.349Z,10.03
2023-06-04T12:19:30.542Z,10.06
2023-06-04T12:20:37.782Z,10.09
2023-06-04T12:21:41.174Z,10.08
2023-06-04T12:22:49.960Z,10.13
2023-06-04T12:23:52.957Z,10.20
2023-06-04T12:24:57.743Z,10.23
2023-06-04T12:26:03.920Z,10.23
2023-06-04T12:27:09.829Z,10.24
2023-06-04T12:28:21.682Z,10.26
2023-06-04T12:29:24.317Z,10.32
2023-06-04T12:30:47.250Z,10.41
2023-06-04T12:31:49.957Z,10.46
2023-06-04T12:32:52.570Z,10.52
2023-06-04T12:33:55.206Z,10.57
2023-06-04T12:34:58.076Z,10.63
2023-06-04T12:36:00.715Z,10.67
2023-06-04T12:37:08.145Z,10.72
2023-06-04T12:38:11.065Z,10.77
2023-06-04T12:39:13.839Z,10.81
2023-06-04T12:40:16.544Z,10.86
2023-06-04T12:41:19.350Z,10.91
2023-06-04T12:42:22.137Z,10.97
2023-06-04T12:43:24.857Z,11.03
2023-06-04T12:44:27.570Z,11.06
2023-06-04T12:45:30.368Z,11.10
2023-06-04T12:46:33.095Z,11.14
2023-06-04T12:47:35.734Z,11.19
2023-06-04T12:48:38.422Z,11.24
2023-06-04T12:49:41.023Z,11.26
2023-06-04T12:50:43.658Z,11.27
2023-06-04T12:51:46.273Z,11.35
2023-06-04T12:52:48.866Z,11.36
2023-06-04T12:53:52.168Z,11.38
2023-06-04T12:54:54.767Z,11.41
2023-06-04T12:55:57.521Z,11.44
2023-06-04T12:57:00.704Z,11.49
2023-06-04T12:58:03.328Z,11.53
2023-06-04T12:59:05.954Z,11.57
2023-06-04T13:00:09.049Z,11.59
2023-06-04T13:01:13.054Z,11.62
2023-06-04T13:02:15.837Z,11.64
2023-06-04T13:03:18.901Z,11.66
2023-06-04T13:04:22.077Z,11.68
2023-06-04T13:05:24.706Z,11.70
2023-06-04T13:06:27.533Z,11.74
2023-06-04T13:07:30.167Z,11.76
2023-06-04T13:08:33.024Z,11.81
2023-06-04T13:09:36.647Z,11.82
2023-06-04T13:10:38.970Z,11.86
2023-06-04T13:11:42.136Z,11.87
2023-06-04T13:12:44.722Z,11.91
2023-06-04T13:13:47.301Z,11.92
2023-06-04T13:14:49.919Z,11.94
2023-06-04T13:15:52.588Z,11.96
2023-06-04T13:16:55.303Z,11.98
2023-06-04T13:17:57.950Z,12.07
2023-06-04T13:19:00.928Z,12.12
2023-06-04T13:20:03.554Z,12.13
2023-06-04T13:21:06.405Z,12.16
2023-06-04T13:22:10.935Z,12.21
2023-06-04T13:23:13.909Z,12.20
2023-06-04T13:24:17.182Z,12.23
2023-06-04T13:25:19.811Z,12.26
2023-06-04T13:26:23.478Z,12.28
2023-06-04T13:27:25.847Z,12.30
2023-06-04T13:28:28.709Z,12.32
2023-06-04T13:29:35.152Z,12.34
2023-06-04T13:30:41.544Z,12.35
2023-06-04T13:31:44.234Z,12.36
2023-06-04T13:32:46.937Z,12.39
2023-06-04T13:33:49.560Z,12.40
2023-06-04T13:34:52.160Z,12.47
2023-06-04T13:35:54.777Z,12.49
2023-06-04T13:36:57.438Z,12.49
2023-06-04T13:38:00.172Z,12.49
2023-06-04T13:39:04.297Z,12.52
2023-06-04T13:40:08.901Z,12.58
2023-06-04T13:41:11.732Z,12.61
2023-06-04T13:42:14.360Z,12.65
2023-06-04T13:43:17.222Z,12.66
2023-06-04T13:44:20.674Z,12.66
2023-06-04T13:45:23.297Z,12.69
2023-06-04T13:46:25.944Z,12.69
2023-06-04T13:47:28.581Z,12.69
2023-06-04T13:48:31.415Z,12.74
2023-06-04T13:49:36.923Z,12.77
2023-06-04T13:50:39.790Z,12.77
2023-06-04T13:51:42.722Z,12.80
2023-06-04T13:52:45.325Z,12.82
2023-06-04T13:53:47.943Z,12.85
2023-06-04T13:54:50.532Z,12.90
2023-06-04T13:55:59.391Z,12.90
2023-06-04T13:57:08.055Z,12.91